createdAt,value
2018-07-08T00:00:48.539Z,1015.08
2018-07-08T00:02:41.316Z,1015.04
2018-07-08T00:03:41.248Z,1015.02
2018-07-08T00:05:34.017Z,1015.00
2018-07-08T00:06:33.953Z,1015.00
2018-07-08T00:08:26.748Z,1015.02
2018-07-08T00:09:26.666Z,1015.00
2018-07-08T00:11:19.472Z,1015.00
2018-07-08T00:12:19.401Z,1014.98
2018-07-08T00:14:12.163Z,1014.99
2018-07-08T00:15:12.097Z,1015.00
2018-07-08T00:17:04.909Z,1014.97
2018-07-08T00:18:04.827Z,1014.98
2018-07-08T00:19:57.591Z,1014.95
2018-07-08T00:20:57.529Z,1014.93
2018-07-08T00:22:50.362Z,1014.94
2018-07-08T00:23:50.251Z,1014.92
2018-07-08T00:25:43.030Z,1014.95
2018-07-08T00:26:42.953Z,1014.93
2018-07-08T00:28:35.738Z,1014.92
2018-07-08T00:29:35.661Z,1014.92
2018-07-08T00:31:28.435Z,1014.93
2018-07-08T00:32:28.359Z,1014.88
2018-07-08T00:34:21.148Z,1014.88
2018-07-08T00:35:21.090Z,1014.91
2018-07-08T00:37:13.871Z,1014.86
2018-07-08T00:38:13.791Z,1014.87
2018-07-08T00:40:06.579Z,1014.87
2018-07-08T00:41:06.505Z,1014.91
2018-07-08T00:42:59.285Z,1014.93
2018-07-08T00:43:59.211Z,1014.89
2018-07-08T00:45:51.988Z,1014.92
2018-07-08T00:46:51.933Z,1014.92
2018-07-08T00:48:44.723Z,1014.91
2018-07-08T00:49:44.632Z,1014.92
2018-07-08T00:51:37.414Z,1014.91
2018-07-08T00:52:37.343Z,1014.91
2018-07-08T00:54:30.117Z,1014.92
2018-07-08T00:55:30.047Z,1014.95
2018-07-08T00:57:22.833Z,1014.90
2018-07-08T00:58:22.770Z,1014.92
2018-07-08T01:00:15.526Z,1014.89
2018-07-08T01:01:15.461Z,1014.90
2018-07-08T01:03:08.301Z,1014.90
2018-07-08T01:04:08.235Z,1014.96
2018-07-08T01:06:01.105Z,1014.95
2018-07-08T01:07:00.930Z,1014.98
2018-07-08T01:08:53.716Z,1014.99
2018-07-08T01:09:53.637Z,1015.00
2018-07-08T01:11:46.420Z,1015.03
2018-07-08T01:12:46.348Z,1015.04
2018-07-08T01:14:39.111Z,1015.05
2018-07-08T01:15:39.053Z,1015.08
2018-07-08T01:17:31.840Z,1015.04
2018-07-08T01:18:31.762Z,1015.04
2018-07-08T01:20:24.534Z,1015.05
2018-07-08T01:21:24.470Z,1015.04
2018-07-08T01:23:17.263Z,1015.04
2018-07-08T01:24:17.186Z,1015.07
2018-07-08T01:26:10.060Z,1015.03
2018-07-08T01:27:09.974Z,1015.06
2018-07-08T01:29:02.743Z,1015.06
2018-07-08T01:30:02.674Z,1015.03
2018-07-08T01:31:55.506Z,1015.02
2018-07-08T01:32:55.389Z,1015.02
2018-07-08T01:34:48.205Z,1015.01
2018-07-08T01:35:48.187Z,1014.99
2018-07-08T01:37:40.900Z,1014.99
2018-07-08T01:38:40.840Z,1014.97
2018-07-08T01:40:33.644Z,1014.97
2018-07-08T01:41:33.561Z,1014.93
2018-07-08T01:43:26.335Z,1015.02
2018-07-08T01:44:26.326Z,1015.05
2018-07-08T01:46:19.099Z,1015.04
2018-07-08T01:47:18.977Z,1015.00
2018-07-08T01:49:11.809Z,1015.03
2018-07-08T01:50:11.738Z,1014.99
2018-07-08T01:52:04.532Z,1014.98
2018-07-08T01:53:04.459Z,1014.96
2018-07-08T01:54:57.388Z,1014.99
2018-07-08T01:55:57.256Z,1014.97
2018-07-08T01:57:50.055Z,1015.02
2018-07-08T01:58:49.975Z,1015.03
2018-07-08T02:00:42.767Z,1015.02
2018-07-08T02:01:42.727Z,1015.04
2018-07-08T02:03:35.518Z,1015.04
2018-07-08T02:04:35.455Z,1015.04
2018-07-08T02:06:28.232Z,1015.03
2018-07-08T02:07:28.164Z,1015.07
2018-07-08T02:09:21.009Z,1015.04
2018-07-08T02:10:20.896Z,1015.02
2018-07-08T02:12:13.777Z,1015.02
2018-07-08T02:13:13.661Z,1015.04
2018-07-08T02:15:06.448Z,1015.07
2018-07-08T02:16:06.407Z,1015.04
2018-07-08T02:17:59.279Z,1015.07
2018-07-08T02:18:59.085Z,1015.04
2018-07-08T02:20:51.865Z,1015.05
2018-07-08T02:21:51.795Z,1015.05
2018-07-08T02:23:44.681Z,1015.11
2018-07-08T02:24:44.572Z,1015.11
2018-07-08T02:26:37.353Z,1015.10
2018-07-08T02:27:37.318Z,1015.10
2018-07-08T02:29:30.119Z,1015.09
2018-07-08T02:30:30.016Z,1015.12
2018-07-08T02:32:22.810Z,1015.09
2018-07-08T02:33:22.729Z,1015.13
2018-07-08T02:35:15.554Z,1015.11
2018-07-08T02:36:15.533Z,1015.11
2018-07-08T02:38:08.585Z,1015.18
2018-07-08T02:39:08.207Z,1015.18
2018-07-08T02:41:00.990Z,1015.19
2018-07-08T02:42:00.947Z,1015.21
2018-07-08T02:43:53.707Z,1015.20
2018-07-08T02:44:53.625Z,1015.23
2018-07-08T02:46:46.489Z,1015.21
2018-07-08T02:47:46.408Z,1015.21
2018-07-08T02:49:39.212Z,1015.22
2018-07-08T02:50:39.107Z,1015.21
2018-07-08T02:52:31.894Z,1015.20
2018-07-08T02:53:31.822Z,1015.20
2018-07-08T02:55:24.596Z,1015.15
2018-07-08T02:56:24.567Z,1015.19
2018-07-08T02:58:17.323Z,1015.18
2018-07-08T02:59:17.237Z,1015.16
2018-07-08T03:01:10.020Z,1015.15
2018-07-08T03:02:09.951Z,1015.13
2018-07-08T03:04:02.727Z,1015.12
2018-07-08T03:05:02.653Z,1015.14
2018-07-08T03:06:55.414Z,1015.12
2018-07-08T03:07:55.363Z,1015.10
2018-07-08T03:09:48.137Z,1015.14
2018-07-08T03:10:48.067Z,1015.16
2018-07-08T03:12:40.878Z,1015.18
2018-07-08T03:13:40.798Z,1015.15
2018-07-08T03:15:33.560Z,1015.12
2018-07-08T03:16:33.501Z,1015.12
2018-07-08T03:18:26.303Z,1015.15
2018-07-08T03:19:26.217Z,1015.15
2018-07-08T03:21:18.979Z,1015.16
2018-07-08T03:22:18.926Z,1015.16
2018-07-08T03:24:11.701Z,1015.20
2018-07-08T03:25:11.621Z,1015.20
2018-07-08T03:27:04.405Z,1015.24
2018-07-08T03:28:04.342Z,1015.27
2018-07-08T03:29:57.114Z,1015.23
2018-07-08T03:30:57.045Z,1015.21
2018-07-08T03:32:49.853Z,1015.18
2018-07-08T03:33:49.758Z,1015.17
2018-07-08T03:35:42.534Z,1015.15
2018-07-08T03:36:42.462Z,1015.18
2018-07-08T03:38:35.249Z,1015.13
2018-07-08T03:39:35.181Z,1015.16
2018-07-08T03:41:27.940Z,1015.16
2018-07-08T03:42:27.878Z,1015.18
2018-07-08T03:44:20.664Z,1015.20
2018-07-08T03:45:20.584Z,1015.18
2018-07-08T03:47:13.365Z,1015.16
2018-07-08T03:48:13.300Z,1015.19
2018-07-08T03:50:06.067Z,1015.20
2018-07-08T03:51:06.043Z,1015.21
2018-07-08T03:52:58.761Z,1015.19
2018-07-08T03:53:58.696Z,1015.20
2018-07-08T03:55:51.481Z,1015.11
2018-07-08T03:56:51.414Z,1015.10
2018-07-08T03:58:44.194Z,1015.15
2018-07-08T03:59:44.120Z,1015.13
2018-07-08T04:01:36.895Z,1015.17
2018-07-08T04:02:36.823Z,1015.18
2018-07-08T04:04:29.608Z,1015.21
2018-07-08T04:05:29.531Z,1015.17
2018-07-08T04:07:22.299Z,1015.25
2018-07-08T04:08:22.283Z,1015.24
2018-07-08T04:10:15.010Z,1015.31
2018-07-08T04:11:14.946Z,1015.33
2018-07-08T04:13:07.713Z,1015.29
2018-07-08T04:14:07.643Z,1015.28
2018-07-08T04:16:00.425Z,1015.33
2018-07-08T04:17:00.349Z,1015.35
2018-07-08T04:18:53.134Z,1015.39
2018-07-08T04:19:53.078Z,1015.32
2018-07-08T04:21:45.854Z,1015.33
2018-07-08T04:22:45.823Z,1015.34
2018-07-08T04:24:38.614Z,1015.39
2018-07-08T04:25:38.538Z,1015.37
2018-07-08T04:27:31.321Z,1015.37
2018-07-08T04:28:31.257Z,1015.40
2018-07-08T04:30:24.067Z,1015.39
2018-07-08T04:31:23.991Z,1015.41
2018-07-08T04:33:16.800Z,1015.43
2018-07-08T04:34:16.722Z,1015.40
2018-07-08T04:36:09.495Z,1015.45
2018-07-08T04:37:09.416Z,1015.40
2018-07-08T04:39:02.199Z,1015.37
2018-07-08T04:40:02.135Z,1015.42
2018-07-08T04:41:54.898Z,1015.47
2018-07-08T04:42:54.837Z,1015.48
2018-07-08T04:44:47.625Z,1015.46
2018-07-08T04:45:47.551Z,1015.49
2018-07-08T04:47:40.362Z,1015.54
2018-07-08T04:48:40.298Z,1015.46
2018-07-08T04:50:33.092Z,1015.52
2018-07-08T04:51:32.999Z,1015.52
2018-07-08T04:53:25.781Z,1015.50
2018-07-08T04:54:25.720Z,1015.50
2018-07-08T04:56:18.489Z,1015.52
2018-07-08T04:57:18.422Z,1015.47
2018-07-08T04:59:11.209Z,1015.57
2018-07-08T05:00:11.132Z,1015.55
2018-07-08T05:02:03.887Z,1015.54
2018-07-08T05:03:03.870Z,1015.52
2018-07-08T05:04:56.637Z,1015.56
2018-07-08T05:05:56.562Z,1015.56
2018-07-08T05:07:49.356Z,1015.56
2018-07-08T05:08:49.286Z,1015.62
2018-07-08T05:10:42.059Z,1015.65
2018-07-08T05:11:41.981Z,1015.68
2018-07-08T05:13:34.749Z,1015.65
2018-07-08T05:14:34.711Z,1015.64
2018-07-08T05:16:27.495Z,1015.69
2018-07-08T05:17:27.405Z,1015.67
2018-07-08T05:19:20.196Z,1015.69
2018-07-08T05:20:20.155Z,1015.68
2018-07-08T05:22:12.877Z,1015.63
2018-07-08T05:23:12.811Z,1015.65
2018-07-08T05:25:05.648Z,1015.71
2018-07-08T05:26:05.547Z,1015.71
2018-07-08T05:27:58.309Z,1015.73
2018-07-08T05:28:58.247Z,1015.69
2018-07-08T05:30:51.046Z,1015.67
2018-07-08T05:31:50.965Z,1015.66
2018-07-08T05:33:43.752Z,1015.68
2018-07-08T05:34:43.665Z,1015.65
2018-07-08T05:36:36.458Z,1015.67
2018-07-08T05:37:36.381Z,1015.66
2018-07-08T05:39:29.176Z,1015.69
2018-07-08T05:40:29.100Z,1015.74
2018-07-08T05:42:21.881Z,1015.76
2018-07-08T05:43:21.810Z,1015.73
2018-07-08T05:45:14.605Z,1015.77
2018-07-08T05:46:14.506Z,1015.75
2018-07-08T05:48:07.281Z,1015.76
2018-07-08T05:49:07.212Z,1015.75
2018-07-08T05:50:59.982Z,1015.80
2018-07-08T05:51:59.943Z,1015.76
2018-07-08T05:53:52.701Z,1015.76
2018-07-08T05:54:52.639Z,1015.78
2018-07-08T05:56:45.429Z,1015.72
2018-07-08T05:57:45.355Z,1015.68
2018-07-08T05:59:38.133Z,1015.72
2018-07-08T06:00:38.057Z,1015.68
2018-07-08T06:02:30.827Z,1015.73
2018-07-08T06:03:30.791Z,1015.70
2018-07-08T06:05:23.560Z,1015.75
2018-07-08T06:06:23.485Z,1015.74
2018-07-08T06:08:16.292Z,1015.77
2018-07-08T06:09:16.222Z,1015.79
2018-07-08T06:11:09.010Z,1015.85
2018-07-08T06:12:08.930Z,1015.85
2018-07-08T06:14:01.729Z,1015.86
2018-07-08T06:15:01.648Z,1015.87
2018-07-08T06:16:54.444Z,1015.88
2018-07-08T06:17:54.349Z,1015.89
2018-07-08T06:19:47.142Z,1015.88
2018-07-08T06:20:47.075Z,1015.88
2018-07-08T06:22:39.831Z,1015.89
2018-07-08T06:23:39.771Z,1015.90
2018-07-08T06:25:32.546Z,1015.87
2018-07-08T06:26:32.467Z,1015.90
2018-07-08T06:28:25.596Z,1015.88
2018-07-08T06:29:25.188Z,1015.86
2018-07-08T06:31:17.961Z,1015.92
2018-07-08T06:32:17.894Z,1015.91
2018-07-08T06:34:10.675Z,1015.90
2018-07-08T06:35:10.607Z,1015.90
2018-07-08T06:37:03.411Z,1015.92
2018-07-08T06:38:03.313Z,1015.93
2018-07-08T06:39:56.095Z,1015.94
2018-07-08T06:40:56.039Z,1015.91
2018-07-08T06:42:48.805Z,1015.98
2018-07-08T06:43:48.728Z,1015.95
2018-07-08T06:45:41.550Z,1015.97
2018-07-08T06:46:41.522Z,1015.99
2018-07-08T06:48:34.268Z,1016.01
2018-07-08T06:49:34.164Z,1016.05
2018-07-08T06:51:26.945Z,1016.04
2018-07-08T06:52:26.870Z,1016.03
2018-07-08T06:54:19.639Z,1016.06
2018-07-08T06:55:19.575Z,1016.04
2018-07-08T06:57:12.366Z,1016.06
2018-07-08T06:58:12.327Z,1016.03
2018-07-08T07:00:05.071Z,1016.03
2018-07-08T07:01:04.993Z,1015.99
2018-07-08T07:02:57.848Z,1015.99
2018-07-08T07:03:57.732Z,1015.99
2018-07-08T07:05:50.497Z,1016.02
2018-07-08T07:06:50.460Z,1015.97
2018-07-08T07:08:43.195Z,1015.99
2018-07-08T07:09:43.143Z,1015.97
2018-07-08T07:11:35.915Z,1015.98
2018-07-08T07:12:35.844Z,1015.97
2018-07-08T07:14:28.604Z,1015.97
2018-07-08T07:15:28.543Z,1015.97
2018-07-08T07:17:21.345Z,1015.96
2018-07-08T07:18:21.257Z,1015.99
2018-07-08T07:20:14.044Z,1015.98
2018-07-08T07:21:13.967Z,1015.97
2018-07-08T07:23:06.828Z,1016.02
2018-07-08T07:24:06.682Z,1015.99
2018-07-08T07:25:59.491Z,1015.99
2018-07-08T07:26:59.431Z,1015.97
2018-07-08T07:28:52.195Z,1015.98
2018-07-08T07:29:52.136Z,1015.99
2018-07-08T07:31:44.945Z,1015.93
2018-07-08T07:32:44.862Z,1015.95
2018-07-08T07:34:37.691Z,1016.02
2018-07-08T07:35:37.604Z,1016.05
2018-07-08T07:37:30.397Z,1016.03
2018-07-08T07:38:30.317Z,1016.08
2018-07-08T07:40:23.099Z,1016.07
2018-07-08T07:41:23.073Z,1016.09
2018-07-08T07:43:15.796Z,1016.05
2018-07-08T07:44:15.726Z,1016.09
2018-07-08T07:46:08.518Z,1016.07
2018-07-08T07:47:08.463Z,1016.05
2018-07-08T07:49:01.201Z,1016.15
2018-07-08T07:50:01.143Z,1016.12
2018-07-08T07:51:53.922Z,1016.11
2018-07-08T07:52:53.847Z,1016.13
2018-07-08T07:54:46.636Z,1016.11
2018-07-08T07:55:46.597Z,1016.13
2018-07-08T07:57:39.373Z,1016.10
2018-07-08T07:58:39.310Z,1016.12
2018-07-08T08:00:32.185Z,1016.09
2018-07-08T08:01:32.110Z,1016.07
2018-07-08T08:03:24.837Z,1016.09
2018-07-08T08:04:24.770Z,1016.08
2018-07-08T08:06:17.545Z,1016.11
2018-07-08T08:07:17.480Z,1016.07
2018-07-08T08:09:10.248Z,1016.06
2018-07-08T08:10:10.190Z,1016.14
2018-07-08T08:12:02.977Z,1016.14
2018-07-08T08:13:02.920Z,1016.15
2018-07-08T08:14:55.681Z,1016.15
2018-07-08T08:15:55.645Z,1016.18
2018-07-08T08:17:48.383Z,1016.14
2018-07-08T08:18:48.311Z,1016.14
2018-07-08T08:20:41.096Z,1016.18
2018-07-08T08:21:41.028Z,1016.18
2018-07-08T08:23:33.832Z,1016.19
2018-07-08T08:24:33.781Z,1016.18
2018-07-08T08:26:26.573Z,1016.22
2018-07-08T08:27:26.457Z,1016.25
2018-07-08T08:29:19.271Z,1016.24
2018-07-08T08:30:19.176Z,1016.27
2018-07-08T08:32:11.964Z,1016.22
2018-07-08T08:33:11.898Z,1016.21
2018-07-08T08:35:04.665Z,1016.18
2018-07-08T08:36:04.605Z,1016.18
2018-07-08T08:37:57.499Z,1016.24
2018-07-08T08:38:57.321Z,1016.23
2018-07-08T08:40:50.101Z,1016.22
2018-07-08T08:41:50.045Z,1016.27
2018-07-08T08:43:42.839Z,1016.27
2018-07-08T08:44:42.758Z,1016.30
2018-07-08T08:46:35.537Z,1016.30
2018-07-08T08:47:35.541Z,1016.25
2018-07-08T08:49:28.255Z,1016.34
2018-07-08T08:50:28.196Z,1016.29
2018-07-08T08:52:21.021Z,1016.29
2018-07-08T08:53:20.935Z,1016.32
2018-07-08T08:55:14.130Z,1016.33
2018-07-08T08:56:14.081Z,1016.35
2018-07-08T08:58:06.833Z,1016.29
2018-07-08T08:59:06.791Z,1016.27
2018-07-08T09:00:59.546Z,1016.25
2018-07-08T09:01:59.506Z,1016.27
2018-07-08T09:03:52.262Z,1016.26
2018-07-08T09:04:52.188Z,1016.24
2018-07-08T09:06:44.984Z,1016.26
2018-07-08T09:07:44.902Z,1016.29
2018-07-08T09:09:37.665Z,1016.23
2018-07-08T09:10:37.626Z,1016.21
2018-07-08T09:12:30.392Z,1016.17
2018-07-08T09:13:30.314Z,1016.17
2018-07-08T09:15:23.090Z,1016.16
2018-07-08T09:16:23.037Z,1016.19
2018-07-08T09:18:15.812Z,1016.22
2018-07-08T09:19:15.746Z,1016.22
2018-07-08T09:21:08.517Z,1016.21
2018-07-08T09:22:08.452Z,1016.25
2018-07-08T09:24:01.323Z,1016.28
2018-07-08T09:25:01.183Z,1016.27
2018-07-08T09:26:53.983Z,1016.19
2018-07-08T09:27:53.910Z,1016.23
2018-07-08T09:29:46.694Z,1016.20
2018-07-08T09:30:46.622Z,1016.16
2018-07-08T09:32:39.411Z,1016.19
2018-07-08T09:33:39.341Z,1016.16
2018-07-08T09:35:32.118Z,1016.15
2018-07-08T09:36:32.058Z,1016.07
2018-07-08T09:38:24.871Z,1016.09
2018-07-08T09:39:24.867Z,1016.14
2018-07-08T09:41:17.591Z,1016.11
2018-07-08T09:42:17.544Z,1016.11
2018-07-08T09:44:10.316Z,1016.15
2018-07-08T09:45:10.249Z,1016.15
2018-07-08T09:47:03.029Z,1016.14
2018-07-08T09:48:02.957Z,1016.13
2018-07-08T09:49:55.751Z,1016.11
2018-07-08T09:50:55.717Z,1016.10
2018-07-08T09:52:48.492Z,1016.14
2018-07-08T09:53:48.417Z,1016.15
2018-07-08T09:55:41.195Z,1016.23
2018-07-08T09:56:41.142Z,1016.19
2018-07-08T09:58:33.955Z,1016.17
2018-07-08T09:59:33.885Z,1016.21
2018-07-08T10:01:26.662Z,1016.19
2018-07-08T10:02:26.606Z,1016.18
2018-07-08T10:04:19.402Z,1016.24
2018-07-08T10:05:19.322Z,1016.29
2018-07-08T10:07:12.151Z,1016.31
2018-07-08T10:08:12.119Z,1016.26
2018-07-08T10:10:04.893Z,1016.27
2018-07-08T10:11:04.833Z,1016.25
2018-07-08T10:12:57.630Z,1016.29
2018-07-08T10:13:57.679Z,1016.27
2018-07-08T10:15:50.345Z,1016.27
2018-07-08T10:16:50.284Z,1016.29
2018-07-08T10:18:43.922Z,1016.28
2018-07-08T10:19:44.050Z,1016.26
2018-07-08T10:21:36.669Z,1016.24
2018-07-08T10:22:36.612Z,1016.22
2018-07-08T10:24:29.622Z,1016.21
2018-07-08T10:25:29.334Z,1016.20
2018-07-08T10:27:22.142Z,1016.17
2018-07-08T10:28:22.045Z,1016.19
2018-07-08T10:30:14.836Z,1016.16
2018-07-08T10:31:14.788Z,1016.16
2018-07-08T10:33:07.566Z,1016.17
2018-07-08T10:34:07.504Z,1016.16
2018-07-08T10:36:00.275Z,1016.16
2018-07-08T10:37:00.211Z,1016.13
2018-07-08T10:38:53.007Z,1016.19
2018-07-08T10:39:52.923Z,1016.17
2018-07-08T10:41:45.699Z,1016.18
2018-07-08T10:42:45.644Z,1016.12
2018-07-08T10:44:38.438Z,1016.14
2018-07-08T10:45:38.371Z,1016.14
2018-07-08T10:47:31.144Z,1016.14
2018-07-08T10:48:31.088Z,1016.11
2018-07-08T10:50:23.879Z,1016.14
2018-07-08T10:51:23.812Z,1016.16
2018-07-08T10:53:16.604Z,1016.15
2018-07-08T10:54:16.538Z,1016.15
2018-07-08T10:56:09.317Z,1016.14
2018-07-08T10:57:09.259Z,1016.15
2018-07-08T10:59:02.070Z,1016.10
2018-07-08T11:00:01.967Z,1016.14
2018-07-08T11:01:54.749Z,1016.07
2018-07-08T11:02:54.679Z,1016.05
2018-07-08T11:04:47.471Z,1016.09
2018-07-08T11:05:47.400Z,1016.12
2018-07-08T11:07:40.174Z,1016.09
2018-07-08T11:08:40.119Z,1016.15
2018-07-08T11:10:32.913Z,1016.15
2018-07-08T11:11:32.843Z,1016.17
2018-07-08T11:13:25.624Z,1016.11
2018-07-08T11:14:25.556Z,1016.13
2018-07-08T11:16:18.324Z,1016.12
2018-07-08T11:17:18.260Z,1016.12
2018-07-08T11:19:11.062Z,1016.09
2018-07-08T11:20:10.980Z,1016.08
2018-07-08T11:22:03.753Z,1016.07
2018-07-08T11:23:03.692Z,1016.08
2018-07-08T11:24:56.495Z,1016.09
2018-07-08T11:25:56.421Z,1016.08
2018-07-08T11:27:49.192Z,1016.05
2018-07-08T11:28:49.135Z,1016.07
2018-07-08T11:30:41.918Z,1016.09
2018-07-08T11:31:41.852Z,1016.08
2018-07-08T11:33:34.637Z,1016.08
2018-07-08T11:34:34.558Z,1016.07
2018-07-08T11:36:27.336Z,1016.11
2018-07-08T11:37:27.278Z,1016.10
2018-07-08T11:39:20.069Z,1016.12
2018-07-08T11:40:19.990Z,1016.07
2018-07-08T11:42:12.812Z,1016.08
2018-07-08T11:43:12.716Z,1016.13
2018-07-08T11:45:05.510Z,1016.09
2018-07-08T11:46:05.447Z,1016.09
2018-07-08T11:47:58.305Z,1016.12
2018-07-08T11:48:58.149Z,1016.14
2018-07-08T11:50:50.930Z,1016.12
2018-07-08T11:51:50.855Z,1016.14
2018-07-08T11:53:43.640Z,1016.10
2018-07-08T11:54:43.683Z,1016.14
2018-07-08T11:56:36.360Z,1016.13
2018-07-08T11:57:36.296Z,1016.12
2018-07-08T11:59:29.072Z,1016.13
2018-07-08T12:00:29.002Z,1016.14
2018-07-08T12:02:21.789Z,1016.17
2018-07-08T12:03:21.715Z,1016.09
2018-07-08T12:05:14.519Z,1016.11
2018-07-08T12:06:14.433Z,1016.14
2018-07-08T12:08:07.225Z,1016.14
2018-07-08T12:09:07.167Z,1016.14
2018-07-08T12:10:59.950Z,1016.17
2018-07-08T12:11:59.883Z,1016.17
2018-07-08T12:13:52.660Z,1016.20
2018-07-08T12:14:52.595Z,1016.19
2018-07-08T12:16:45.365Z,1016.15
2018-07-08T12:17:45.305Z,1016.17
2018-07-08T12:19:38.082Z,1016.21
2018-07-08T12:20:38.016Z,1016.17
2018-07-08T12:22:30.793Z,1016.15
2018-07-08T12:23:30.730Z,1016.16
2018-07-08T12:25:23.567Z,1016.16
2018-07-08T12:26:23.504Z,1016.14
2018-07-08T12:28:16.281Z,1016.11
2018-07-08T12:29:16.214Z,1016.12
2018-07-08T12:31:08.999Z,1016.08
2018-07-08T12:32:08.932Z,1016.07
2018-07-08T12:34:01.728Z,1016.02
2018-07-08T12:35:01.646Z,1016.05
2018-07-08T12:36:54.468Z,1016.01
2018-07-08T12:37:54.358Z,1016.01
2018-07-08T12:39:47.153Z,1015.96
2018-07-08T12:40:47.089Z,1015.92
2018-07-08T12:42:39.853Z,1015.97
2018-07-08T12:43:39.807Z,1015.96
2018-07-08T12:45:32.588Z,1015.93
2018-07-08T12:46:32.528Z,1015.89
2018-07-08T12:48:25.362Z,1015.89
2018-07-08T12:49:25.314Z,1015.93
2018-07-08T12:51:18.114Z,1015.90
2018-07-08T12:52:18.067Z,1015.93
2018-07-08T12:54:10.847Z,1015.92
2018-07-08T12:55:10.744Z,1015.95
2018-07-08T12:57:03.527Z,1015.97
2018-07-08T12:58:03.472Z,1015.97
2018-07-08T12:59:56.249Z,1015.95
2018-07-08T13:00:56.179Z,1015.99
2018-07-08T13:02:48.946Z,1015.92
2018-07-08T13:03:48.896Z,1015.94
2018-07-08T13:05:41.688Z,1015.91
2018-07-08T13:06:41.648Z,1015.89
2018-07-08T13:08:34.406Z,1015.92
2018-07-08T13:09:34.354Z,1015.83
2018-07-08T13:11:27.150Z,1015.81
2018-07-08T13:12:27.051Z,1015.81
2018-07-08T13:14:19.847Z,1015.87
2018-07-08T13:15:19.781Z,1015.87
2018-07-08T13:17:12.561Z,1015.80
2018-07-08T13:18:12.503Z,1015.83
2018-07-08T13:20:05.347Z,1015.81
2018-07-08T13:21:05.247Z,1015.81
2018-07-08T13:22:58.000Z,1015.78
2018-07-08T13:23:57.957Z,1015.81
2018-07-08T13:25:50.721Z,1015.78
2018-07-08T13:26:50.675Z,1015.78
2018-07-08T13:28:43.430Z,1015.80
2018-07-08T13:29:43.383Z,1015.78
2018-07-08T13:31:36.153Z,1015.75
2018-07-08T13:32:36.143Z,1015.75
2018-07-08T13:34:28.908Z,1015.79
2018-07-08T13:35:28.855Z,1015.80
2018-07-08T13:37:21.577Z,1015.76
2018-07-08T13:38:21.537Z,1015.76
2018-07-08T13:40:14.315Z,1015.73
2018-07-08T13:41:14.238Z,1015.72
2018-07-08T13:43:07.036Z,1015.76
2018-07-08T13:44:06.966Z,1015.76
2018-07-08T13:45:59.741Z,1015.77
2018-07-08T13:46:59.690Z,1015.79
2018-07-08T13:48:52.455Z,1015.77
2018-07-08T13:49:52.406Z,1015.72
2018-07-08T13:51:45.177Z,1015.71
2018-07-08T13:52:45.135Z,1015.70
2018-07-08T13:54:38.008Z,1015.68
2018-07-08T13:55:37.904Z,1015.67
2018-07-08T13:57:30.612Z,1015.67
2018-07-08T13:58:30.556Z,1015.68
2018-07-08T14:00:23.358Z,1015.69
2018-07-08T14:01:23.276Z,1015.65
2018-07-08T14:03:16.076Z,1015.59
2018-07-08T14:04:15.991Z,1015.59
2018-07-08T14:06:08.780Z,1015.58
2018-07-08T14:07:08.711Z,1015.58
2018-07-08T14:09:01.504Z,1015.58
2018-07-08T14:10:01.437Z,1015.55
2018-07-08T14:11:54.248Z,1015.56
2018-07-08T14:12:54.157Z,1015.60
2018-07-08T14:14:47.064Z,1015.55
2018-07-08T14:15:47.000Z,1015.53
2018-07-08T14:17:39.670Z,1015.45
2018-07-08T14:18:39.583Z,1015.47
2018-07-08T14:20:32.544Z,1015.40
2018-07-08T14:21:32.341Z,1015.40
2018-07-08T14:23:25.108Z,1015.40
2018-07-08T14:24:25.061Z,1015.38
2018-07-08T14:26:17.922Z,1015.38
2018-07-08T14:27:17.868Z,1015.33
2018-07-08T14:29:10.643Z,1015.30
2018-07-08T14:30:10.589Z,1015.33
2018-07-08T14:32:03.367Z,1015.29
2018-07-08T14:33:03.304Z,1015.26
2018-07-08T14:34:56.258Z,1015.26
2018-07-08T14:35:56.058Z,1015.26
2018-07-08T14:37:48.827Z,1015.28
2018-07-08T14:38:48.768Z,1015.24
2018-07-08T14:40:41.605Z,1015.21
2018-07-08T14:41:41.485Z,1015.21
2018-07-08T14:43:34.266Z,1015.22
2018-07-08T14:44:34.262Z,1015.22
2018-07-08T14:46:26.994Z,1015.20
2018-07-08T14:47:26.910Z,1015.21
2018-07-08T14:49:19.752Z,1015.20
2018-07-08T14:50:19.665Z,1015.24
2018-07-08T14:52:12.561Z,1015.18
2018-07-08T14:53:12.376Z,1015.14
2018-07-08T14:55:05.363Z,1015.07
2018-07-08T14:56:05.097Z,1015.08
2018-07-08T14:57:57.891Z,1015.08
2018-07-08T14:58:57.811Z,1015.06
2018-07-08T15:00:50.598Z,1014.99
2018-07-08T15:01:50.525Z,1014.97
2018-07-08T15:03:43.326Z,1014.95
2018-07-08T15:04:43.288Z,1015.01
2018-07-08T15:06:36.051Z,1015.03
2018-07-08T15:07:35.981Z,1015.02
2018-07-08T15:09:28.779Z,1015.02
2018-07-08T15:10:28.711Z,1015.01
2018-07-08T15:12:21.494Z,1015.07
2018-07-08T15:13:21.432Z,1015.06
2018-07-08T15:15:14.224Z,1015.05
2018-07-08T15:16:14.211Z,1015.02
2018-07-08T15:18:06.952Z,1015.08
2018-07-08T15:19:06.882Z,1015.07
2018-07-08T15:20:59.711Z,1015.02
2018-07-08T15:21:59.603Z,1015.04
2018-07-08T15:23:52.375Z,1015.05
2018-07-08T15:24:52.325Z,1015.09
2018-07-08T15:26:45.113Z,1015.01
2018-07-08T15:27:45.043Z,1015.08
2018-07-08T15:29:37.807Z,1015.05
2018-07-08T15:30:37.794Z,1015.00
2018-07-08T15:32:30.604Z,1015.03
2018-07-08T15:33:30.476Z,1015.01
2018-07-08T15:35:23.269Z,1015.02
2018-07-08T15:36:23.213Z,1015.01
2018-07-08T15:38:16.013Z,1015.06
2018-07-08T15:39:15.936Z,1015.02
2018-07-08T15:41:08.730Z,1014.95
2018-07-08T15:42:08.647Z,1015.00
2018-07-08T15:44:01.433Z,1014.97
2018-07-08T15:45:01.376Z,1014.93
2018-07-08T15:46:54.231Z,1014.89
2018-07-08T15:47:54.093Z,1014.94
2018-07-08T15:49:46.910Z,1014.93
2018-07-08T15:50:46.820Z,1014.77
2018-07-08T15:52:39.634Z,1014.90
2018-07-08T15:53:39.571Z,1014.94
2018-07-08T15:55:32.625Z,1014.87
2018-07-08T15:56:32.561Z,1014.84
2018-07-08T15:58:25.360Z,1014.89
2018-07-08T15:59:25.288Z,1014.87
2018-07-08T16:01:18.074Z,1014.92
2018-07-08T16:02:18.009Z,1014.91
2018-07-08T16:04:10.798Z,1014.86
2018-07-08T16:05:10.733Z,1014.84
2018-07-08T16:07:03.525Z,1014.86
2018-07-08T16:08:03.458Z,1014.87
2018-07-08T16:09:56.232Z,1014.92
2018-07-08T16:10:56.169Z,1014.89
2018-07-08T16:12:48.953Z,1014.92
2018-07-08T16:13:48.884Z,1014.91
2018-07-08T16:15:41.672Z,1014.91
2018-07-08T16:16:41.649Z,1014.89
2018-07-08T16:18:34.637Z,1014.91
2018-07-08T16:19:34.370Z,1014.91
2018-07-08T16:21:27.151Z,1014.94
2018-07-08T16:22:27.095Z,1014.93
2018-07-08T16:24:19.871Z,1014.87
2018-07-08T16:25:19.817Z,1014.88
2018-07-08T16:27:12.601Z,1014.88
2018-07-08T16:28:12.533Z,1014.87
2018-07-08T16:30:05.316Z,1014.92
2018-07-08T16:31:05.255Z,1014.90
2018-07-08T16:32:58.064Z,1014.96
2018-07-08T16:33:58.002Z,1014.90
2018-07-08T16:35:50.789Z,1014.93
2018-07-08T16:36:50.726Z,1014.87
2018-07-08T16:38:43.531Z,1014.91
2018-07-08T16:39:43.450Z,1014.89
2018-07-08T16:41:36.248Z,1014.83
2018-07-08T16:42:36.181Z,1014.83
2018-07-08T16:44:28.952Z,1014.80
2018-07-08T16:45:28.899Z,1014.81
2018-07-08T16:47:21.678Z,1014.78
2018-07-08T16:48:21.607Z,1014.78
2018-07-08T16:50:14.393Z,1014.78
2018-07-08T16:51:14.326Z,1014.79
2018-07-08T16:53:07.130Z,1014.82
2018-07-08T16:54:07.051Z,1014.85
2018-07-08T16:55:59.847Z,1014.83
2018-07-08T16:56:59.785Z,1014.84
2018-07-08T16:58:52.578Z,1014.84
2018-07-08T16:59:52.509Z,1014.86
2018-07-08T17:01:45.293Z,1014.85
2018-07-08T17:02:45.221Z,1014.86
2018-07-08T17:04:38.009Z,1014.86
2018-07-08T17:05:37.958Z,1014.81
2018-07-08T17:07:30.746Z,1014.78
2018-07-08T17:08:30.692Z,1014.80
2018-07-08T17:10:23.457Z,1014.75
2018-07-08T17:11:23.387Z,1014.77
2018-07-08T17:13:16.194Z,1014.78
2018-07-08T17:14:16.116Z,1014.80
2018-07-08T17:16:08.923Z,1014.82
2018-07-08T17:17:08.836Z,1014.80
2018-07-08T17:19:01.617Z,1014.80
2018-07-08T17:20:01.603Z,1014.80
2018-07-08T17:21:54.344Z,1014.79
2018-07-08T17:22:54.271Z,1014.80
2018-07-08T17:24:47.042Z,1014.77